createdAt,value
2022-08-18T00:02:07.625Z,76.71
2022-08-18T00:04:45.251Z,76.88
2022-08-18T00:07:26.539Z,77.15
2022-08-18T00:09:53.655Z,77.67
2022-08-18T00:12:24.498Z,77.96
2022-08-18T00:14:53.016Z,78.37
2022-08-18T00:17:21.628Z,78.28
2022-08-18T00:19:48.838Z,78.02
2022-08-18T00:22:21.007Z,78.19
2022-08-18T00:24:52.591Z,78.04
2022-08-18T00:27:30.459Z,78.31
2022-08-18T00:30:01.354Z,78.24
2022-08-18T00:32:43.048Z,78.04
2022-08-18T00:35:14.021Z,78.09
2022-08-18T00:37:42.423Z,77.89
2022-08-18T00:40:14.662Z,78.04
2022-08-18T00:42:52.838Z,77.96
2022-08-18T00:45:26.292Z,78.05
2022-08-18T00:47:54.008Z,78.13
2022-08-18T00:50:34.248Z,78.00
2022-08-18T00:53:20.504Z,78.08
2022-08-18T00:55:53.782Z,78.30
2022-08-18T00:58:30.987Z,78.33
2022-08-18T01:01:01.146Z,78.44
2022-08-18T01:03:29.116Z,78.31
2022-08-18T01:06:28.395Z,78.52
2022-08-18T01:08:56.194Z,78.65
2022-08-18T01:11:23.472Z,78.58
2022-08-18T01:13:51.095Z,78.59
2022-08-18T01:16:37.632Z,78.74
2022-08-18T01:19:23.408Z,78.97
2022-08-18T01:22:04.587Z,79.11
2022-08-18T01:24:54.493Z,78.97
2022-08-18T01:27:21.919Z,78.87
2022-08-18T01:29:50.477Z,79.11
2022-08-18T01:32:23.722Z,79.12
2022-08-18T01:34:52.708Z,79.16
2022-08-18T01:37:23.805Z,79.19
2022-08-18T01:41:27.544Z,79.21
2022-08-18T01:42:39.093Z,79.07
2022-08-18T01:45:08.697Z,79.08
2022-08-18T01:47:47.480Z,79.19
2022-08-18T01:50:23.850Z,79.06
2022-08-18T01:52:53.594Z,79.25
2022-08-18T01:55:21.516Z,79.18
2022-08-18T01:57:48.827Z,79.29
2022-08-18T02:00:19.074Z,79.30
2022-08-18T02:02:47.259Z,79.36
2022-08-18T02:05:43.075Z,79.25
2022-08-18T02:08:12.564Z,79.37
2022-08-18T02:10:40.383Z,79.42
2022-08-18T02:13:07.392Z,79.46
2022-08-18T02:15:34.985Z,79.58
2022-08-18T02:18:02.344Z,79.56
2022-08-18T02:20:29.361Z,79.67
2022-08-18T02:22:58.708Z,79.72
2022-08-18T02:25:25.602Z,79.85
2022-08-18T02:27:52.603Z,79.88
2022-08-18T02:30:20.853Z,80.03
2022-08-18T02:32:47.789Z,79.88
2022-08-18T02:35:14.844Z,80.07
2022-08-18T02:37:43.554Z,80.18
2022-08-18T02:40:14.912Z,80.23
2022-08-18T02:42:43.830Z,80.01
2022-08-18T02:45:12.952Z,80.12
2022-08-18T02:47:40.885Z,80.02
2022-08-18T02:50:10.963Z,80.07
2022-08-18T02:52:38.418Z,80.12
2022-08-18T02:55:08.765Z,79.94
2022-08-18T02:57:35.801Z,80.32
2022-08-18T03:00:03.017Z,80.53
2022-08-18T03:02:32.101Z,80.50
2022-08-18T03:04:58.943Z,80.66
2022-08-18T03:07:25.750Z,80.69
2022-08-18T03:09:52.564Z,80.73
2022-08-18T03:12:19.438Z,80.73
2022-08-18T03:14:46.926Z,80.62
2022-08-18T03:17:15.149Z,80.87
2022-08-18T03:19:47.909Z,81.15
2022-08-18T03:22:27.472Z,81.01
2022-08-18T03:24:57.200Z,81.09
2022-08-18T03:27:24.643Z,81.00
2022-08-18T03:29:51.571Z,81.05
2022-08-18T03:32:18.969Z,81.11
2022-08-18T03:34:46.007Z,80.87
2022-08-18T03:37:16.385Z,81.06
2022-08-18T03:39:43.402Z,81.11
2022-08-18T03:42:10.542Z,81.54
2022-08-18T03:44:37.786Z,81.23
2022-08-18T03:47:10.129Z,81.09
2022-08-18T03:49:37.954Z,81.18
2022-08-18T03:52:09.926Z,81.28
2022-08-18T03:54:39.083Z,81.40
2022-08-18T03:57:09.549Z,81.35
2022-08-18T03:59:36.913Z,81.70
2022-08-18T04:02:05.756Z,81.71
2022-08-18T04:04:33.020Z,81.60
2022-08-18T04:07:10.018Z,81.59
2022-08-18T04:09:39.125Z,81.65
2022-08-18T04:12:16.673Z,81.74
2022-08-18T04:14:49.209Z,81.77
2022-08-18T04:17:27.472Z,81.94
2022-08-18T04:19:56.371Z,81.91
2022-08-18T04:22:25.192Z,81.90
2022-08-18T04:24:53.548Z,81.83
2022-08-18T04:27:22.700Z,82.02
2022-08-18T04:29:50.264Z,82.00
2022-08-18T04:32:17.418Z,81.95
2022-08-18T04:34:44.729Z,81.87
2022-08-18T04:37:14.061Z,81.91
2022-08-18T04:39:41.310Z,82.01
2022-08-18T04:42:08.701Z,81.86
2022-08-18T04:44:38.058Z,81.98
2022-08-18T04:47:07.736Z,81.87
2022-08-18T04:49:35.398Z,82.10
2022-08-18T04:52:40.849Z,81.99
2022-08-18T04:55:08.880Z,82.04
2022-08-18T04:57:36.029Z,82.13
2022-08-18T05:00:07.136Z,82.15
2022-08-18T05:02:34.090Z,82.20
2022-08-18T05:05:03.370Z,82.08
2022-08-18T05:07:30.603Z,82.16
2022-08-18T05:09:57.685Z,82.17
2022-08-18T05:12:26.323Z,82.17
2022-08-18T05:14:57.123Z,82.12
2022-08-18T05:17:30.543Z,82.12
2022-08-18T05:20:00.379Z,81.99
2022-08-18T05:22:31.143Z,81.96
2022-08-18T05:24:58.589Z,81.99
2022-08-18T05:27:25.434Z,82.07
2022-08-18T05:29:52.466Z,82.12
2022-08-18T05:32:38.334Z,82.11
2022-08-18T05:35:12.393Z,82.11
2022-08-18T05:37:59.933Z,82.23
2022-08-18T05:40:27.116Z,82.27
2022-08-18T05:42:57.575Z,82.28
2022-08-18T05:45:25.031Z,82.35
2022-08-18T05:47:52.106Z,82.31
2022-08-18T05:50:21.191Z,82.49
2022-08-18T05:53:00.158Z,82.31
2022-08-18T05:55:57.463Z,82.41
2022-08-18T05:58:34.469Z,82.39
2022-08-18T06:01:12.094Z,82.50
2022-08-18T06:04:06.742Z,82.34
2022-08-18T06:06:36.685Z,82.28
2022-08-18T06:09:26.086Z,82.47
2022-08-18T06:12:09.230Z,82.49
2022-08-18T06:14:39.249Z,82.60
2022-08-18T06:17:46.930Z,82.61
2022-08-18T06:20:31.029Z,82.57
2022-08-18T06:23:28.191Z,82.80
2022-08-18T06:26:10.727Z,82.75
2022-08-18T06:29:25.229Z,82.78
2022-08-18T06:32:06.085Z,82.94
2022-08-18T06:35:10.364Z,83.80
2022-08-18T06:38:36.570Z,83.60
2022-08-18T06:41:41.888Z,83.51
2022-08-18T06:44:31.547Z,83.55
2022-08-18T06:47:11.565Z,83.75
2022-08-18T06:49:46.798Z,83.89
2022-08-18T06:52:23.786Z,83.98
2022-08-18T06:54:54.268Z,84.01
2022-08-18T06:57:57.987Z,84.09
2022-08-18T07:00:32.670Z,84.19
2022-08-18T07:03:13.685Z,84.27
2022-08-18T07:06:02.565Z,84.14
2022-08-18T07:08:38.654Z,84.72
2022-08-18T07:11:29.649Z,84.49
2022-08-18T07:14:22.586Z,84.58
2022-08-18T07:16:59.258Z,84.44
2022-08-18T07:19:31.331Z,84.37
2022-08-18T07:22:05.818Z,84.19
2022-08-18T07:24:40.777Z,84.28
2022-08-18T07:27:17.777Z,84.38
2022-08-18T07:30:15.691Z,84.34
2022-08-18T07:32:52.097Z,84.43
2022-08-18T07:35:25.195Z,84.20
2022-08-18T07:38:13.841Z,84.15
2022-08-18T07:40:59.397Z,84.18
2022-08-18T07:44:17.209Z,84.08
2022-08-18T07:46:56.361Z,83.86
2022-08-18T07:49:28.259Z,83.98
2022-08-18T07:52:04.016Z,83.78
2022-08-18T07:54:50.460Z,83.71
2022-08-18T07:57:50.498Z,83.62
2022-08-18T08:00:47.728Z,83.65
2022-08-18T08:03:48.239Z,83.44
2022-08-18T08:06:47.709Z,83.21
2022-08-18T08:09:39.738Z,83.11
2022-08-18T08:12:32.797Z,82.69
2022-08-18T08:15:42.898Z,82.48
2022-08-18T08:18:44.455Z,81.69
2022-08-18T08:21:18.593Z,81.50
2022-08-18T08:23:56.306Z,81.57
2022-08-18T08:26:32.332Z,81.56
2022-08-18T08:29:38.599Z,81.59
2022-08-18T08:32:34.512Z,81.21
2022-08-18T08:35:49.879Z,81.20
2022-08-18T08:38:43.141Z,80.94
2022-08-18T08:41:33.497Z,80.78
2022-08-18T08:44:16.882Z,80.36
2022-08-18T08:46:55.649Z,80.11
2022-08-18T08:50:02.551Z,79.01
2022-08-18T08:52:44.949Z,79.38
2022-08-18T08:55:25.805Z,79.06
2022-08-18T08:58:09.811Z,77.79
2022-08-18T09:00:40.983Z,76.67
2022-08-18T09:03:30.077Z,74.87
2022-08-18T09:06:00.594Z,74.11
2022-08-18T09:08:49.185Z,70.77
2022-08-18T09:12:07.534Z,70.51
2022-08-18T09:15:26.518Z,71.00
2022-08-18T09:18:30.129Z,70.15
2022-08-18T09:21:22.199Z,68.76
2022-08-18T09:23:55.011Z,67.18
2022-08-18T09:26:40.064Z,66.77
2022-08-18T09:29:23.735Z,63.53
2022-08-18T09:32:18.703Z,63.57
2022-08-18T09:35:45.924Z,63.64
2022-08-18T09:38:45.635Z,62.17
2022-08-18T09:41:34.232Z,62.89
2022-08-18T09:44:21.333Z,63.25
2022-08-18T09:46:56.180Z,63.28
2022-08-18T09:49:27.329Z,63.54
2022-08-18T09:52:24.468Z,61.71
2022-08-18T09:54:59.408Z,63.29
2022-08-18T09:57:31.258Z,63.79
2022-08-18T10:00:12.629Z,64.10
2022-08-18T10:02:40.456Z,64.50
2022-08-18T10:05:17.201Z,63.88
2022-08-18T10:08:25.649Z,64.43
2022-08-18T10:11:16.663Z,64.34
2022-08-18T10:14:31.323Z,64.48
2022-08-18T10:17:35.680Z,64.38
2022-08-18T10:20:34.437Z,64.48
2022-08-18T10:23:02.008Z,64.21
2022-08-18T10:25:47.526Z,63.74
2022-08-18T10:28:51.986Z,63.86
2022-08-18T10:31:19.090Z,63.03
2022-08-18T10:34:19.123Z,63.46
2022-08-18T10:37:02.052Z,63.59
2022-08-18T10:39:41.216Z,62.26
2022-08-18T10:42:33.981Z,60.29
2022-08-18T10:45:32.315Z,61.91
2022-08-18T10:48:30.572Z,61.41
2022-08-18T10:51:12.330Z,60.80
2022-08-18T10:53:51.556Z,59.21
2022-08-18T10:56:48.589Z,59.09
2022-08-18T11:06:17.829Z,60.90
2022-08-18T11:08:55.181Z,60.96
2022-08-18T11:15:22.604Z,61.67
2022-08-18T11:18:10.766Z,61.44
2022-08-18T11:20:40.310Z,60.25
2022-08-18T11:23:17.424Z,60.69
2022-08-18T11:25:45.161Z,61.30
2022-08-18T11:31:06.557Z,61.47
2022-08-18T11:33:33.605Z,62.04
2022-08-18T11:36:05.172Z,62.25
2022-08-18T11:38:34.674Z,62.67
2022-08-18T11:41:23.484Z,61.85
2022-08-18T11:43:59.901Z,62.73
2022-08-18T11:46:38.969Z,61.45
2022-08-18T11:49:30.210Z,60.79
2022-08-18T11:52:29.618Z,59.42
2022-08-18T11:55:14.427Z,59.96
2022-08-18T11:57:59.203Z,59.72
2022-08-18T12:00:47.686Z,59.93
2022-08-18T12:03:31.119Z,58.91
2022-08-18T12:06:19.305Z,58.43
2022-08-18T12:09:05.175Z,58.47
2022-08-18T12:11:37.076Z,59.07
2022-08-18T12:14:30.774Z,58.58
2022-08-18T12:19:47.601Z,59.03
2022-08-18T12:22:22.891Z,58.78
2022-08-18T12:24:51.099Z,58.44
2022-08-18T12:27:22.465Z,57.97
2022-08-18T12:29:52.987Z,57.50
2022-08-18T12:35:11.840Z,55.75
2022-08-18T12:38:11.214Z,56.40
2022-08-18T12:43:20.070Z,56.96
2022-08-18T12:45:47.875Z,56.68
2022-08-18T12:48:15.168Z,55.58
2022-08-18T12:50:54.628Z,55.43
2022-08-18T12:53:30.048Z,54.55
2022-08-18T12:56:17.623Z,54.21
2022-08-18T12:58:47.563Z,54.42
2022-08-18T13:01:17.716Z,54.00
2022-08-18T13:03:52.706Z,52.43
2022-08-18T13:06:40.753Z,53.52
2022-08-18T13:09:16.584Z,53.22
2022-08-18T13:11:55.968Z,53.36
2022-08-18T13:14:27.234Z,53.63
2022-08-18T13:16:55.252Z,54.06
2022-08-18T13:19:22.346Z,53.73
2022-08-18T13:21:49.713Z,53.81
2022-08-18T13:24:21.242Z,53.94
2022-08-18T13:26:50.256Z,54.00
2022-08-18T13:29:19.638Z,54.06
2022-08-18T13:31:50.426Z,53.48
2022-08-18T13:34:22.497Z,53.62
2022-08-18T13:36:51.173Z,53.20
2022-08-18T13:39:24.237Z,53.34
2022-08-18T13:41:54.153Z,52.77
2022-08-18T13:44:22.714Z,51.65
2022-08-18T13:46:56.041Z,52.05
2022-08-18T13:49:30.315Z,52.20
2022-08-18T13:52:00.976Z,52.41
2022-08-18T13:54:34.064Z,51.82
2022-08-18T13:57:05.076Z,51.92
2022-08-18T13:59:34.255Z,51.28
2022-08-18T14:02:08.662Z,51.21
2022-08-18T14:04:38.127Z,51.32
2022-08-18T14:07:10.954Z,52.17
2022-08-18T14:09:39.365Z,52.47
2022-08-18T14:12:28.343Z,51.94
2022-08-18T14:14:59.693Z,53.08
2022-08-18T14:17:27.251Z,53.67
2022-08-18T14:20:15.546Z,53.90
2022-08-18T14:23:11.055Z,54.07
2022-08-18T14:25:57.234Z,55.08
2022-08-18T14:28:28.359Z,55.54
2022-08-18T14:30:57.789Z,55.54
2022-08-18T14:33:49.675Z,55.42
2022-08-18T14:36:17.414Z,55.36
2022-08-18T14:38:45.524Z,55.37
2022-08-18T14:41:14.780Z,55.56
2022-08-18T14:43:55.647Z,55.19
2022-08-18T14:46:32.814Z,55.19
2022-08-18T14:49:04.139Z,54.57
2022-08-18T14:51:33.647Z,54.48
2022-08-18T14:54:02.145Z,54.53
2022-08-18T14:56:29.772Z,54.55
2022-08-18T14:59:00.160Z,54.12
2022-08-18T15:01:27.546Z,54.36
2022-08-18T15:03:55.023Z,54.83
2022-08-18T15:06:22.961Z,54.19
2022-08-18T15:08:54.414Z,54.45
2022-08-18T15:11:24.577Z,54.36
2022-08-18T15:13:55.091Z,55.03
2022-08-18T15:16:26.956Z,54.85
2022-08-18T15:18:59.315Z,54.70
2022-08-18T15:21:47.142Z,55.39
2022-08-18T15:24:39.660Z,55.85
2022-08-18T15:27:13.266Z,55.99
2022-08-18T15:29:46.484Z,55.68
2022-08-18T15:32:17.572Z,55.53
2022-08-18T15:34:47.278Z,56.04
2022-08-18T15:37:22.141Z,56.36
2022-08-18T15:40:03.050Z,56.51
2022-08-18T15:42:30.056Z,56.95
2022-08-18T15:45:11.590Z,56.93
2022-08-18T15:47:41.584Z,57.50
2022-08-18T15:50:21.955Z,57.70
2022-08-18T15:53:01.104Z,57.84
2022-08-18T15:55:35.715Z,58.18
2022-08-18T15:58:03.449Z,58.39
2022-08-18T16:00:42.672Z,58.41
2022-08-18T16:03:14.579Z,58.73
2022-08-18T16:05:52.776Z,58.56
2022-08-18T16:08:23.714Z,58.78
2022-08-18T16:10:52.467Z,59.80
2022-08-18T16:13:20.122Z,60.03
2022-08-18T16:15:50.418Z,60.21
2022-08-18T16:18:21.245Z,61.30
2022-08-18T16:20:50.683Z,61.28
2022-08-18T16:23:19.772Z,61.65
2022-08-18T16:25:46.711Z,61.90
2022-08-18T16:28:13.664Z,62.14
2022-08-18T16:30:41.499Z,62.16
2022-08-18T16:33:08.835Z,63.27
2022-08-18T16:35:37.553Z,64.10
2022-08-18T16:38:08.789Z,64.33
2022-08-18T16:40:37.180Z,65.29
2022-08-18T16:43:06.076Z,66.50
2022-08-18T16:45:36.232Z,65.88
2022-08-18T16:48:04.156Z,65.86
2022-08-18T16:50:31.148Z,66.32
2022-08-18T16:52:58.556Z,66.98
2022-08-18T16:55:25.583Z,67.79
2022-08-18T16:58:15.275Z,68.31
2022-08-18T17:01:01.809Z,68.51
2022-08-18T17:03:47.401Z,68.52
2022-08-18T17:06:18.633Z,68.64
2022-08-18T17:08:46.463Z,68.60
2022-08-18T17:11:19.157Z,68.61
2022-08-18T17:13:48.903Z,68.82
2022-08-18T17:16:17.694Z,68.59
2022-08-18T17:18:45.305Z,68.68
2022-08-18T17:21:17.245Z,68.81
2022-08-18T17:23:46.024Z,69.09
2022-08-18T17:26:27.164Z,69.18
2022-08-18T17:29:35.962Z,69.07
2022-08-18T17:32:10.895Z,68.69
2022-08-18T17:34:43.176Z,68.88
2022-08-18T17:37:14.821Z,68.86
2022-08-18T17:40:12.736Z,68.52
2022-08-18T17:42:40.603Z,68.77
2022-08-18T17:45:11.749Z,68.87
2022-08-18T17:48:00.187Z,69.40
2022-08-18T17:51:05.148Z,69.37
2022-08-18T17:53:36.385Z,69.00
2022-08-18T17:56:22.255Z,68.86
2022-08-18T17:58:56.731Z,68.92
2022-08-18T18:01:26.241Z,68.97
2022-08-18T18:03:54.062Z,68.44
2022-08-18T18:06:31.768Z,68.37
2022-08-18T18:09:09.187Z,68.33
2022-08-18T18:11:47.325Z,68.25
2022-08-18T18:14:44.073Z,68.37
2022-08-18T18:17:32.586Z,68.73
2022-08-18T18:20:32.956Z,68.90
2022-08-18T18:23:22.632Z,69.23
2022-08-18T18:25:50.794Z,69.33
2022-08-18T18:28:36.167Z,69.69
2022-08-18T18:31:28.073Z,69.93
2022-08-18T18:34:23.460Z,70.51
2022-08-18T18:36:56.269Z,70.16
2022-08-18T18:39:35.944Z,70.36
2022-08-18T18:42:26.452Z,70.62
2022-08-18T18:45:05.814Z,70.46
2022-08-18T18:48:07.992Z,70.47
2022-08-18T18:51:10.504Z,71.32
2022-08-18T18:54:06.370Z,71.86
2022-08-18T18:56:41.605Z,71.97
2022-08-18T18:59:21.146Z,72.26
2022-08-18T19:02:32.932Z,72.39
2022-08-18T19:05:19.589Z,72.56
2022-08-18T19:07:58.186Z,72.91
2022-08-18T19:10:30.631Z,72.99
2022-08-18T19:13:06.042Z,73.17
2022-08-18T19:15:38.246Z,73.20
2022-08-18T19:18:28.045Z,73.21
2022-08-18T19:22:04.787Z,73.32
2022-08-18T19:24:26.751Z,73.59
2022-08-18T19:27:00.585Z,73.48
2022-08-18T19:29:38.716Z,73.62
2022-08-18T19:32:16.613Z,73.92
2022-08-18T19:34:52.877Z,73.97
2022-08-18T19:37:50.379Z,73.97
2022-08-18T19:40:28.821Z,74.15
2022-08-18T19:43:05.788Z,74.35
2022-08-18T19:46:02.621Z,74.39
2022-08-18T19:48:53.325Z,74.55
2022-08-18T19:51:40.144Z,74.46
2022-08-18T19:54:52.240Z,74.61
2022-08-18T19:57:19.224Z,74.81
2022-08-18T20:00:20.616Z,75.20
2022-08-18T20:03:05.993Z,75.13
2022-08-18T20:06:20.892Z,75.33
2022-08-18T20:09:09.884Z,75.49
2022-08-18T20:11:42.699Z,75.55
2022-08-18T20:14:18.830Z,75.66
2022-08-18T20:17:10.587Z,75.73
2022-08-18T20:19:44.584Z,76.05
2022-08-18T20:22:34.381Z,76.18
2022-08-18T20:25:41.833Z,77.08
2022-08-18T20:28:11.827Z,76.73
2022-08-18T20:30:38.600Z,76.70
2022-08-18T20:33:32.320Z,76.89
2022-08-18T20:36:24.472Z,76.98
2022-08-18T20:38:55.164Z,77.21
2022-08-18T20:41:35.621Z,77.37
2022-08-18T20:44:49.826Z,77.73
2022-08-18T20:47:16.734Z,77.65
2022-08-18T20:50:10.766Z,77.69
2022-08-18T20:52:43.360Z,77.81
2022-08-18T20:55:19.440Z,78.13
2022-08-18T20:57:47.003Z,78.16
2022-08-18T21:00:23.930Z,78.33
2022-08-18T21:02:59.901Z,78.50
2022-08-18T21:05:34.098Z,79.14
2022-08-18T21:08:13.686Z,78.57
2022-08-18T21:10:58.051Z,78.59
2022-08-18T21:13:56.891Z,79.01
2022-08-18T21:16:37.740Z,79.35
2022-08-18T21:19:23.755Z,79.46
2022-08-18T21:21:56.885Z,79.37
2022-08-18T21:24:36.966Z,80.26
2022-08-18T21:27:12.352Z,80.78
2022-08-18T21:29:47.512Z,80.75
2022-08-18T21:32:48.217Z,80.51
2022-08-18T21:35:34.289Z,80.62
2022-08-18T21:38:06.379Z,80.90
2022-08-18T21:40:47.701Z,81.21
2022-08-18T21:43:49.109Z,81.06
2022-08-18T21:46:29.679Z,81.12
2022-08-18T21:49:01.110Z,81.10
2022-08-18T21:51:33.336Z,81.63
2022-08-18T21:54:00.923Z,81.51
2022-08-18T21:56:32.306Z,81.42
2022-08-18T21:59:19.075Z,81.52
2022-08-18T22:01:55.466Z,82.11
2022-08-18T22:04:47.558Z,81.96
2022-08-18T22:07:34.251Z,82.01
2022-08-18T22:10:41.761Z,82.12
2022-08-18T22:13:41.746Z,82.08
2022-08-18T22:16:32.716Z,82.15
2022-08-18T22:19:28.860Z,82.32
2022-08-18T22:22:26.657Z,82.35
2022-08-18T22:24:59.579Z,82.34
2022-08-18T22:27:27.621Z,82.50
2022-08-18T22:30:04.189Z,82.55
2022-08-18T22:32:40.124Z,83.06
2022-08-18T22:35:08.885Z,82.76
2022-08-18T22:37:50.170Z,82.75
2022-08-18T22:40:21.653Z,82.74
2022-08-18T22:42:49.259Z,82.55
2022-08-18T22:45:16.504Z,82.38
2022-08-18T22:47:44.853Z,82.37
2022-08-18T22:50:14.082Z,82.41
2022-08-18T22:52:46.648Z,81.93
2022-08-18T22:55:21.827Z,82.01
2022-08-18T22:57:55.871Z,82.22
2022-08-18T23:00:25.481Z,82.31
2022-08-18T23:02:54.386Z,82.25
2022-08-18T23:05:21.901Z,82.27
2022-08-18T23:07:49.044Z,82.18
2022-08-18T23:10:16.890Z,82.33
2022-08-18T23:12:45.157Z,82.39
2022-08-18T23:15:13.240Z,82.33
2022-08-18T23:17:42.472Z,82.02
2022-08-18T23:20:17.891Z,82.10
2022-08-18T23:22:46.536Z,81.84
2022-08-18T23:25:13.884Z,81.62
2022-08-18T23:27:41.416Z,81.04
2022-08-18T23:30:09.527Z,80.53
2022-08-18T23:32:36.907Z,79.98
2022-08-18T23:35:04.869Z,79.37
2022-08-18T23:37:31.934Z,79.21
2022-08-18T23:39:59.449Z,79.05
2022-08-18T23:42:26.788Z,78.99
2022-08-18T23:44:53.607Z,79.14
2022-08-18T23:47:21.241Z,79.27
2022-08-18T23:49:48.853Z,79.27
2022-08-18T23:52:15.789Z,79.49
2022-08-18T23:54:42.680Z,79.92
2022-08-18T23:57:09.476Z,80.02
2022-08-18T23:59:36.728Z,79.94
